Latest Weather Observations for Laverton

IDW60801

Issued at 8:13 am WST Sunday 5 July 2020 (issued every 10 minutes, with the page automatically refreshed every 10 minutes)

About weather observations | Map of weather stations | Latest weather observations for WA | Other Formats
Station Details ID: 012305 Name: LAVERTON AERO Lat: -28.61 Lon: 122.42 Height: 464.3 m
Data from the previous 72 hours. | See also: Recent months at Laverton
Date/Time
WST
Temp
°C
App
Temp
°C
Dew
Point
°C
Rel
Hum
%
Delta-T
°C
Wind Press
QNH
hPa
Press
MSL
hPa
Rain since
9am
mm
Dir  Spd
km/h
Gust
km/h
Spd
kts
Gust
kts
05/08:00am 13.8 7.8 1.1 42 5.5 NE 22 33 12 18 1025.8 1025.6 0.0
05/07:30am 12.4 7.4 1.4 47 4.8 NE 17 22 9 12 1025.9 1025.7 0.0
05/07:00am 11.8 6.8 1.4 49 4.5 NE 17 24 9 13 1025.8 1025.6 0.0
05/06:30am 11.9 5.9 1.3 48 4.6 NE 22 28 12 15 1025.4 1025.3 0.0
05/06:00am 11.5 6.0 0.9 48 4.5 NE 19 26 10 14 1025.2 1025.1 0.0
05/05:30am 11.6 6.1 0.7 47 4.7 NE 19 26 10 14 1025.1 1025.0 0.0
05/05:00am 11.4 5.9 0.5 47 4.6 NE 19 26 10 14 1025.0 1024.9 0.0
05/04:30am 11.1 5.9 0.2 47 4.6 NE 17 26 9 14 1025.1 1025.0 0.0
05/04:00am 11.5 6.0 0.6 47 4.6 NE 19 24 10 13 1025.2 1025.1 0.0
05/03:30am 11.5 6.3 0.3 46 4.7 ENE 17 22 9 12 1025.3 1025.2 0.0
05/03:00am 11.5 6.3 0.3 46 4.7 ENE 17 20 9 11 1025.5 1025.4 0.0
05/02:30am 11.3 6.5 0.1 46 4.7 ENE 15 20 8 11 1025.7 1025.5 0.0
05/02:00am 11.6 6.4 0.1 45 4.8 ENE 17 22 9 12 1025.9 1025.7 0.0
05/01:30am 11.8 6.3 0.3 45 4.9 ENE 19 26 10 14 1026.1 1025.9 0.0
05/01:00am 12.0 6.8 0.1 44 5.0 ENE 17 24 9 13 1026.4 1026.3 0.0
05/12:30am 12.2 6.6 0.0 43 5.2 ENE 19 24 10 13 1026.4 1026.3 0.0
05/12:00am 12.6 6.8 0.0 42 5.3 NE 20 26 11 14 1026.6 1026.5 0.0
 
Date/Time
WST
Temp
°C
App
Temp
°C
Dew
Point
°C
Rel
Hum
%
Delta-T
°C
Wind Press
QNH
hPa
Press
MSL
hPa
Rain since
9am
mm
Dir  Spd
km/h
Gust
km/h
Spd
kts
Gust
kts
04/11:30pm 12.1 6.9 0.2 44 5.0 NE 17 20 9 11 1026.9 1026.8 0.0
04/11:00pm 12.2 7.0 0.3 44 5.0 NE 17 20 9 11 1027.0 1026.9 0.0
04/10:30pm 12.6 7.4 0.4 43 5.2 NE 17 24 9 13 1027.2 1027.1 0.0
04/10:00pm 12.8 7.6 0.2 42 5.3 ENE 17 22 9 12 1027.2 1027.1 0.0
04/09:30pm 13.1 7.5 0.2 41 5.5 ENE 19 22 10 12 1027.2 1027.1 0.0
04/09:00pm 13.4 8.2 0.1 40 5.7 ENE 17 19 9 10 1027.3 1027.2 0.0
04/08:30pm 12.8 8.7 -0.1 41 5.5 NE 11 13 6 7 1027.2 1027.1 0.0
04/08:00pm 13.2 8.4 -0.1 40 5.6 NE 15 17 8 9 1027.2 1027.1 0.0
04/07:30pm 12.9 8.3 -1.1 38 5.8 ENE 13 13 7 7 1027.2 1027.1 0.0
04/07:00pm 13.4 9.1 -1.3 36 6.1 ENE 11 13 6 7 1027.0 1026.9 0.0
04/06:30pm 14.8 10.2 -1.3 33 6.8 ENE 13 15 7 8 1026.7 1026.6 0.0
04/06:00pm 15.9 11.3 -0.8 32 7.1 ENE 13 13 7 7 1026.5 1026.4 0.0
04/05:30pm 17.6 13.1 -0.6 29 8.0 ENE 13 15 7 8 1026.3 1026.1 0.0
04/05:00pm 19.4 14.6 -0.1 27 8.7 ENE 15 20 8 11 1026.1 1025.9 0.0
04/04:30pm 20.2 15.4 0.1 26 9.1 E 15 20 8 11 1026.0 1025.8 0.0
04/04:00pm 20.8 15.2 0.1 25 9.4 NE 19 24 10 13 1026.0 1025.8 0.0
04/03:30pm 20.6 15.0 -0.1 25 9.4 ENE 19 24 10 13 1026.0 1025.8 0.0
04/03:00pm 21.0 15.4 0.2 25 9.5 NE 19 26 10 14 1026.0 1025.8 0.0
04/02:30pm 20.9 15.3 1.2 27 9.2 ENE 20 28 11 15 1026.1 1025.9 0.0
04/02:00pm 21.1 15.7 1.4 27 9.2 ENE 19 30 10 16 1026.5 1026.4 0.0
04/01:30pm 20.1 13.7 1.0 28 8.8 NE 24 32 13 17 1026.8 1026.7 0.0
04/01:00pm 20.4 14.6 2.3 30 8.6 NE 22 32 12 17 1027.2 1027.1 0.0
04/12:30pm 19.7 13.5 2.1 31 8.3 ENE 24 32 13 17 1028.0 1027.8 0.0
04/12:00pm 19.2 13.0 2.1 32 8.0 NE 24 32 13 17 1028.7 1028.6 0.0
04/11:30am 18.2 13.0 2.5 35 7.4 ENE 19 28 10 15 1029.7 1029.6 0.0
04/11:00am 17.7 11.2 2.8 37 7.0 ENE 26 33 14 18 1030.3 1030.2 0.0
04/10:30am 16.6 10.2 3.0 40 6.4 NE 26 33 14 18 1030.5 1030.4 0.0
04/10:00am 15.3 8.6 3.8 46 5.4 NE 28 37 15 20 1030.6 1030.5 0.0
04/09:30am 14.4 7.8 4.1 50 4.9 NE 28 37 15 20 1030.7 1030.6 0.0
04/09:00am 13.1 7.7 4.3 55 4.1 ENE 22 30 12 16 1030.6 1030.5 0.0
04/08:30am 11.1 6.1 4.6 64 3.0 ENE 20 28 11 15 1030.5 1030.4 0.0
04/08:00am 9.5 4.7 4.7 72 2.2 ENE 19 24 10 13 1030.5 1030.4 0.0
04/07:30am 7.3 3.2 4.3 81 1.3 E 15 19 8 10 1030.5 1030.4 0.0
04/07:00am 6.6 2.4 3.8 82 1.2 E 15 17 8 9 1030.5 1030.4 0.0
04/06:30am 7.3 2.8 4.1 80 1.4 E 17 20 9 11 1030.4 1030.3 0.0
04/06:00am 7.1 3.6 3.7 79 1.5 ESE 11 13 6 7 1030.6 1030.5 0.0
04/05:30am 7.9 4.1 3.9 76 1.8 E 13 19 7 10 1030.3 1030.2 0.0
04/05:00am 8.2 4.8 4.2 76 1.8 ENE 11 17 6 9 1030.2 1030.1 0.0
04/04:30am 8.1 4.3 4.1 76 1.8 E 13 19 7 10 1030.0 1030.0 0.0
04/04:00am 8.4 3.9 4.2 75 1.9 E 17 20 9 11 1029.9 1029.8 0.0
04/03:30am 8.4 3.5 4.0 74 2.0 E 19 24 10 13 1030.0 1030.0 0.0
04/03:00am 8.9 3.8 3.9 71 2.2 ENE 20 28 11 15 1030.0 1030.0 0.0
04/02:30am 9.2 4.2 3.6 68 2.5 E 19 26 10 14 1030.2 1030.1 0.0
04/02:00am 9.4 4.2 3.6 67 2.6 E 20 24 11 13 1030.2 1030.1 0.0
04/01:30am 9.8 5.1 3.3 64 2.9 E 17 22 9 12 1030.5 1030.4 0.0
04/01:00am 9.9 4.8 3.2 63 3.0 E 19 22 10 12 1030.7 1030.6 0.0
04/12:30am 10.3 4.6 3.1 61 3.2 ENE 22 28 12 15 1030.7 1030.6 0.0
04/12:00am 10.5 5.2 3.1 60 3.3 E 20 28 11 15 1030.7 1030.6 0.0
 
Date/Time
WST
Temp
°C
App
Temp
°C
Dew
Point
°C
Rel
Hum
%
Delta-T
°C
Wind Press
QNH
hPa
Press
MSL
hPa
Rain since
9am
mm
Dir  Spd
km/h
Gust
km/h
Spd
kts
Gust
kts
03/11:30pm 10.6 5.5 2.9 59 3.4 E 19 24 10 13 1030.8 1030.7 0.0
03/11:00pm 10.9 5.6 3.0 58 3.5 E 20 26 11 14 1030.9 1030.8 0.0
03/10:30pm 11.5 6.2 3.0 56 3.8 E 20 26 11 14 1031.1 1031.0 0.0
03/10:00pm 11.2 6.0 2.5 55 3.8 E 19 22 10 12 1031.1 1031.0 0.0
03/09:30pm 11.5 6.2 1.7 51 4.3 ENE 19 22 10 12 1031.1 1031.0 0.0
03/09:00pm 12.0 6.6 1.3 48 4.6 ENE 19 24 10 13 1031.2 1031.1 0.0
03/08:30pm 12.2 7.5 0.6 45 5.0 ENE 15 19 8 10 1030.9 1030.8 0.0
03/08:00pm 13.1 7.9 0.2 41 5.5 ENE 17 20 9 11 1030.6 1030.5 0.0
03/07:30pm 13.4 8.9 -0.3 39 5.8 ENE 13 17 7 9 1030.4 1030.3 0.0
03/07:00pm 13.7 9.2 -0.3 38 5.9 ENE 13 17 7 9 1030.2 1030.1 0.0
03/06:30pm 14.5 10.0 0.0 37 6.3 ENE 13 15 7 8 1029.8 1029.7 0.0
03/06:00pm 15.4 10.6 0.0 35 6.7 ENE 15 17 8 9 1029.5 1029.4 0.0
03/05:30pm 16.3 11.1 0.4 34 7.0 ENE 17 24 9 13 1029.2 1029.1 0.0
03/05:00pm 17.1 11.4 0.3 32 7.4 ENE 20 26 11 14 1029.0 1028.9 0.0
03/04:30pm 17.7 11.6 0.4 31 7.7 NE 22 30 12 16 1028.8 1028.7 0.0
03/04:00pm 17.9 11.9 1.0 32 7.6 ENE 22 30 12 16 1028.8 1028.7 0.0
03/03:30pm 18.5 12.9 1.1 31 8.0 NE 20 30 11 16 1028.6 1028.5 0.0
03/03:00pm 18.2 12.8 1.3 32 7.7 NE 19 30 10 16 1028.6 1028.5 0.0
03/02:30pm 18.6 13.1 1.6 32 7.9 NNE 20 28 11 15 1028.6 1028.5 0.0
03/02:00pm 18.2 12.9 1.7 33 7.6 ENE 19 24 10 13 1028.8 1028.7 0.0
03/01:30pm 18.0 13.0 1.5 33 7.6 NNE 17 30 9 16 1029.1 1029.0 0.0
03/01:00pm 17.4 12.1 1.8 35 7.1 NE 19 28 10 15 1029.4 1029.3 0.0
03/12:30pm 16.3 11.1 2.7 40 6.3 ENE 19 28 10 15 1029.8 1029.7 0.0
03/12:00pm 16.5 11.2 3.2 41 6.2 E 20 30 11 16 1030.6 1030.5 0.0
03/11:30am 15.5 9.9 3.3 44 5.7 ENE 22 32 12 17 1031.3 1031.2 0.0
03/11:00am 15.4 10.3 3.9 46 5.4 ENE 20 26 11 14 1031.8 1031.8 0.0
03/10:30am 14.7 9.2 3.8 48 5.1 ENE 22 30 12 16 1032.3 1032.3 0.0
03/10:00am 13.6 7.7 3.7 51 4.6 ENE 24 33 13 18 1032.8 1032.7 0.0
03/09:30am 13.0 7.5 4.2 55 4.1 ENE 22 28 12 15 1032.9 1032.8 0.0
03/09:00am 11.5 6.3 3.8 59 3.5 ENE 20 24 11 13 1033.0 1032.9 0.0
03/08:30am 9.7 4.5 3.7 66 2.7 ENE 20 26 11 14 1032.7 1032.6 0.0
03/08:00am 7.8 2.7 2.9 71 2.1 ENE 19 24 10 13 1032.1 1032.1 0.0
03/07:30am 6.2 1.3 2.3 76 1.6 ENE 17 19 9 10 1031.9 1031.9 0.0
03/07:00am 4.9 0.3 1.7 80 1.3 ENE 15 17 8 9 1031.4 1031.3 0.0
03/06:30am 4.4 0.1 1.1 79 1.3 ENE 13 13 7 7 1030.9 1030.8 0.0
03/06:00am 4.9 0.7 1.4 78 1.4 ENE 13 17 7 9 1030.4 1030.3 0.0
03/05:30am 5.5 1.3 1.8 77 1.5 ENE 13 15 7 8 1029.8 1029.7 0.0
03/05:00am 5.0 0.7 0.9 75 1.6 NE 13 13 7 7 1029.4 1029.3 0.0
03/04:30am 5.3 1.4 1.1 74 1.7 NE 11 13 6 7 1029.2 1029.1 0.0
03/04:00am 5.2 1.7 1.0 74 1.7 E 9 11 5 6 1029.0 1028.9 0.0
03/03:30am 6.3 2.4 1.2 70 2.1 E 11 13 6 7 1028.8 1028.7 0.0
03/03:00am 6.1 1.8 1.1 70 2.0 E 13 13 7 7 1028.6 1028.5 0.0
03/02:30am 6.8 2.5 1.3 68 2.3 ENE 13 15 7 8 1028.5 1028.4 0.0
03/02:00am 7.7 3.1 1.8 66 2.5 E 15 17 8 9 1028.6 1028.5 0.0
03/01:30am 7.4 3.6 1.7 67 2.4 E 11 15 6 8 1028.7 1028.6 0.0
03/01:00am 8.4 4.2 1.8 63 2.8 E 13 15 7 8 1028.5 1028.4 0.0
03/12:30am 9.6 4.7 2.2 60 3.2 E 17 19 9 10 1028.2 1028.1 0.0
03/12:00am 10.2 5.0 2.3 58 3.4 ESE 19 22 10 12 1028.3 1028.2 0.0
 
Date/Time
WST
Temp
°C
App
Temp
°C
Dew
Point
°C
Rel
Hum
%
Delta-T
°C
Wind Press
QNH
hPa
Press
MSL
hPa
Rain since
9am
mm
Dir  Spd
km/h
Gust
km/h
Spd
kts
Gust
kts
02/11:30pm 10.5 5.1 2.4 57 3.6 ESE 20 26 11 14 1028.2 1028.1 0.0
02/11:00pm 10.8 5.0 2.1 55 3.8 ESE 22 28 12 15 1028.3 1028.2 0.0
02/10:30pm 11.1 5.7 2.2 54 3.9 ESE 20 26 11 14 1028.3 1028.2 0.0
02/10:00pm 11.3 6.0 1.8 52 4.1 ESE 19 24 10 13 1028.3 1028.2 0.0
02/09:30pm 11.5 6.5 1.5 50 4.3 ESE 17 20 9 11 1028.1 1027.9 0.0
02/09:00pm 11.8 7.2 1.4 49 4.5 ESE 15 19 8 10 1028.1 1027.9 0.0
02/08:30pm 12.1 7.4 1.1 47 4.8 ESE 15 19 8 10 1027.7 1027.6 0.0
02/08:00pm 12.5 8.2 1.2 46 4.9 ESE 13 19 7 10 1027.4 1027.3 0.0
02/07:30pm 13.1 8.4 1.1 44 5.2 ESE 15 17 8 9 1027.0 1026.9 0.0
02/07:00pm 13.6 8.9 0.9 42 5.5 ESE 15 17 8 9 1026.6 1026.5 0.0
02/06:30pm 14.0 9.6 0.6 40 5.8 SE 13 17 7 9 1026.3 1026.1 0.0
02/06:00pm 14.8 10.1 1.0 39 6.1 SE 15 20 8 11 1025.7 1025.5 0.0
02/05:30pm 15.5 10.3 0.1 35 6.7 SE 17 20 9 11 1025.1 1025.0 0.0
02/05:00pm 16.4 10.9 0.5 34 7.0 SE 19 24 10 13 1024.6 1024.5 0.0
02/04:30pm 17.1 11.9 0.3 32 7.5 SE 17 20 9 11 1024.3 1024.1 0.0
02/04:00pm 17.4 12.6 0.1 31 7.6 SE 15 24 8 13 1024.1 1023.9 0.0
02/03:30pm 17.5 12.3 0.2 31 7.7 SE 17 22 9 12 1024.0 1023.8 0.0
02/03:00pm 17.6 13.2 0.3 31 7.7 ESE 13 19 7 10 1023.9 1023.7 0.0
02/02:30pm 17.0 12.6 0.2 32 7.4 E 13 22 7 12 1023.9 1023.7 0.0
02/02:00pm 17.0 12.1 -0.7 30 7.7 E 15 22 8 12 1024.0 1023.8 0.0
02/01:30pm 16.9 12.3 -0.8 30 7.7 ESE 13 22 7 12 1024.3 1024.1 0.0
02/01:00pm 16.7 12.6 -0.5 31 7.5 ESE 11 19 6 10 1024.5 1024.4 0.0
02/12:30pm 16.1 12.4 -0.2 33 7.1 ESE 9 19 5 10 1024.9 1024.8 0.0
02/12:00pm 15.7 10.9 0.3 35 6.7 ESE 15 24 8 13 1025.3 1025.2 0.0
02/11:30am 16.1 11.4 0.7 35 6.8 E 15 22 8 12 1025.8 1025.6 0.0
02/11:00am 15.4 10.2 0.4 36 6.5 E 17 20 9 11 1026.1 1025.9 0.0
02/10:30am 14.8 9.7 1.0 39 6.1 E 17 30 9 16 1026.2 1026.0 0.0
02/10:00am 13.9 9.0 1.9 44 5.3 E 17 22 9 12 1026.3 1026.1 0.0
02/09:30am 12.9 7.6 1.9 47 4.9 ESE 19 24 10 13 1026.2 1026.0 0.0
02/09:00am 11.7 5.9 2.2 52 4.2 E 22 28 12 15 1026.1 1025.9 -
02/08:30am 10.6 4.9 2.7 58 3.5 E 22 32 12 17 1025.9 1025.7 -

Other formats

Comma delimited format used in spreadsheet applications
http://www.bom.gov.au/fwo/IDW60801/IDW60801.94449.axf

JavaScript Object Notation format (JSON) in row-major order
http://www.bom.gov.au/fwo/IDW60801/IDW60801.94449.json

Data quality

Most of these data are generated automatically and are frequently updated. Quality checks on data are not normally performed. It is possible for incorrect values to appear. Refer to information at About Latest Weather Observations and please check the disclaimer before using these data.